Time;durP1;ratioP1;P1;durP2;ratioP2;P2;SDS_P1;SDS_P2;PMS_P1;PMS_P2;Temp;Humidity;BMP_temperature;BMP_pressure;BME280_temperature;BME280_humidity;BME280_pressure;Samples;Min_cycle;Max_cycle;Signal;HPM_P1;HPM_P2
2022/08/24 00:00:39;;;;;;;0.95;0.40;;;;;;;15.70;100.00;101983.41;10335389;28;20398;-76
2022/08/24 00:05:41;;;;;;;5.60;5.15;;;;;;;15.71;100.00;101994.66;10317567;28;20495;-77
2022/08/24 00:10:42;;;;;;;2.92;2.72;;;;;;;15.84;100.00;101993.25;10324003;28;20445;-77
2022/08/24 00:15:45;;;;;;;7.00;6.43;;;;;;;15.59;100.00;101999.59;10339387;28;20064;-78
2022/08/24 00:20:47;;;;;;;14.13;13.15;;;;;;;15.52;100.00;101996.84;10332784;28;20125;-77
2022/08/24 00:25:50;;;;;;;2.70;2.50;;;;;;;15.61;100.00;102003.06;10310998;28;20055;-78
2022/08/24 00:30:52;;;;;;;8.75;1.23;;;;;;;15.68;100.00;102007.56;10344833;28;20166;-76
2022/08/24 00:35:54;;;;;;;0.52;0.40;;;;;;;15.66;100.00;102007.53;10317486;28;20086;-77
2022/08/24 00:40:55;;;;;;;0.25;0.25;;;;;;;15.57;100.00;102002.13;10309838;28;20379;-77
2022/08/24 00:46:14;;;;;;;0.30;0.30;;;;;;;15.43;100.00;102003.53;10328393;28;20061;-76
2022/08/24 00:51:26;;;;;;;1.40;1.17;;;;;;;15.63;100.00;102016.97;10338708;28;20069;-77
2022/08/24 00:56:34;;;;;;;1.05;0.43;;;;;;;15.15;100.00;102008.06;10319549;28;20054;-77
2022/08/24 01:01:37;;;;;;;0.55;0.43;;;;;;;15.28;100.00;102002.31;10320233;28;20051;-80
2022/08/24 01:06:39;;;;;;;0.40;0.40;;;;;;;15.29;100.00;101998.03;10322267;28;20053;-81
2022/08/24 01:11:41;;;;;;;1999.90;999.90;;;;;;;15.27;100.00;102023.06;10322296;28;20055;-81
2022/08/24 01:22:47;;;;;;;0.57;0.57;;;;;;;14.53;100.00;102017.69;10255362;28;20118;-81
2022/08/24 01:27:52;;;;;;;1500.60;750.58;;;;;;;14.29;100.00;102023.09;10309544;28;20066;-81
2022/08/24 01:32:58;;;;;;;0.88;0.50;;;;;;;14.57;100.00;102026.44;10321674;28;20081;-81
2022/08/24 01:38:04;;;;;;;4.10;3.80;;;;;;;14.66;100.00;102031.91;10321639;28;20046;-81
2022/08/24 01:43:07;;;;;;;1.42;1.33;;;;;;;14.68;100.00;102031.94;10300031;28;20054;-77
2022/08/24 01:48:09;;;;;;;2.30;2.17;;;;;;;14.94;100.00;102031.75;10306847;28;20055;-79
2022/08/24 01:53:14;;;;;;;2.55;2.35;;;;;;;14.59;100.00;102037.75;10312010;28;20056;-78
2022/08/24 01:58:17;;;;;;;4.50;4.20;;;;;;;14.23;100.00;102034.16;10311037;28;20050;-78
2022/08/24 02:03:19;;;;;;;38.88;36.70;;;;;;;14.58;100.00;102041.16;10318505;28;20069;-78
2022/08/24 02:08:29;;;;;;;4.13;3.83;;;;;;;14.34;100.00;102028.38;10331191;28;20054;-79
2022/08/24 02:13:31;;;;;;;3.78;3.47;;;;;;;14.32;100.00;102037.84;10307322;28;20050;-79
2022/08/24 02:18:35;;;;;;;3.50;3.30;;;;;;;14.51;100.00;102047.03;10323634;28;20489;-79
2022/08/24 02:23:40;;;;;;;4.75;4.45;;;;;;;14.52;100.00;102044.47;10321565;28;20160;-78
2022/08/24 02:28:42;;;;;;;1999.90;999.90;;;;;;;14.21;100.00;102034.94;10296127;28;20496;-79
2022/08/24 02:33:44;;;;;;;1999.90;999.90;;;;;;;14.35;100.00;102045.69;10303012;28;20073;-79
2022/08/24 02:38:45;;;;;;;1999.90;999.90;;;;;;;14.33;100.00;102044.78;10310311;28;20076;-79
2022/08/24 02:43:53;;;;;;;1999.90;999.90;;;;;;;14.22;100.00;102042.75;10290349;28;20832;-79
2022/08/24 02:48:57;;;;;;;1999.90;999.90;;;;;;;14.20;100.00;102041.81;10309325;28;20133;-78
2022/08/24 02:54:16;;;;;;;1999.90;999.90;;;;;;;14.33;100.00;102047.38;10305634;28;20050;-79
2022/08/24 02:59:21;;;;;;;1999.90;999.90;;;;;;;13.90;100.00;102045.25;10315719;28;20457;-79
2022/08/24 03:04:24;;;;;;;1999.90;999.90;;;;;;;13.95;100.00;102054.06;10319925;28;20390;-79
2022/08/24 03:09:26;;;;;;;16.77;15.77;;;;;;;13.90;100.00;102050.44;10303413;28;20055;-79
2022/08/24 03:14:31;;;;;;;16.65;15.65;;;;;;;13.96;100.00;102050.63;10292254;28;20082;-78
2022/08/24 03:19:33;;;;;;;1999.90;999.90;;;;;;;13.95;100.00;102048.88;10312134;28;20050;-78
2022/08/24 03:24:35;;;;;;;1999.90;999.90;;;;;;;13.94;100.00;102043.63;10316821;28;20082;-79
2022/08/24 03:29:36;;;;;;;18.15;17.08;;;;;;;14.02;100.00;102042.16;10309536;28;20042;-78
2022/08/24 03:34:38;;;;;;;44.45;22.27;;;;;;;14.25;100.00;102037.66;10315545;28;20465;-79
2022/08/24 03:39:41;;;;;;;9.05;8.45;;;;;;;14.06;100.00;102035.34;10309649;28;20055;-78
2022/08/24 03:44:43;;;;;;;12.15;11.45;;;;;;;13.73;100.00;102033.53;10298212;28;20046;-78
2022/08/24 03:49:47;;;;;;;15.27;14.20;;;;;;;13.77;100.00;102032.75;10310022;28;20061;-78
2022/08/24 03:54:49;;;;;;;10.05;9.45;;;;;;;13.83;100.00;102043.31;10318598;28;20081;-79
2022/08/24 03:59:51;;;;;;;89.65;35.38;;;;;;;13.67;100.00;102046.25;10308116;28;20502;-78
2022/08/24 04:04:52;;;;;;;1999.90;999.90;;;;;;;13.77;100.00;102058.66;10322417;28;20417;-78
2022/08/24 04:09:54;;;;;;;3.13;2.92;;;;;;;13.71;100.00;102061.06;10319743;28;20078;-79
2022/08/24 04:14:58;;;;;;;0.80;0.80;;;;;;;13.77;100.00;102069.03;10314687;28;20047;-79
2022/08/24 04:20:01;;;;;;;1.58;1.45;;;;;;;13.70;100.00;102077.44;10326737;28;20048;-78
2022/08/24 04:25:09;;;;;;;2.55;1.35;;;;;;;13.78;100.00;102081.16;10306288;28;20070;-78
2022/08/24 04:30:13;;;;;;;1.58;0.93;;;;;;;13.63;100.00;102087.59;10323826;28;20493;-78
2022/08/24 04:35:39;;;;;;;1.35;0.85;;;;;;;13.47;100.00;102090.50;10313723;28;20084;-79
2022/08/24 04:40:43;;;;;;;0.75;0.63;;;;;;;13.46;100.00;102088.75;10316917;28;20046;-78
2022/08/24 04:45:51;;;;;;;1999.90;999.90;;;;;;;13.42;100.00;102092.94;10317153;28;20049;-79
2022/08/24 04:50:53;;;;;;;2.45;1.27;;;;;;;13.47;100.00;102095.69;10309120;28;20048;-78
2022/08/24 04:55:56;;;;;;;1.58;1.45;;;;;;;13.54;100.00;102102.84;10309076;28;20473;-78
2022/08/24 05:00:57;;;;;;;33.05;31.08;;;;;;;13.64;100.00;102104.00;10329836;28;20085;-78
2022/08/24 05:06:04;;;;;;;4.45;1.52;;;;;;;13.28;100.00;102109.69;10313350;28;20059;-78
2022/08/24 05:11:07;;;;;;;1.75;0.93;;;;;;;13.45;100.00;102107.69;10309596;28;20452;-79
2022/08/24 05:16:12;;;;;;;1.35;1.23;;;;;;;13.63;100.00;102110.91;10320869;28;20046;-79
2022/08/24 05:21:18;;;;;;;17.55;15.98;;;;;;;13.94;100.00;102108.41;10324378;28;20046;-79
2022/08/24 05:26:26;;;;;;;1999.90;999.90;;;;;;;14.03;100.00;102118.19;10306169;28;20403;-79
2022/08/24 05:31:31;;;;;;;1999.90;999.90;;;;;;;14.18;100.00;102123.84;10329112;28;20047;-79
2022/08/24 05:36:39;;;;;;;1999.90;999.90;;;;;;;14.40;100.00;102134.88;10325191;28;20054;-79
2022/08/24 05:41:46;;;;;;;1999.90;999.90;;;;;;;14.57;100.00;102137.94;10312218;28;20101;-78
2022/08/24 05:46:57;;;;;;;1999.90;999.90;;;;;;;14.90;100.00;102148.44;10318053;28;20053;-79
2022/08/24 05:52:00;;;;;;;3.50;2.67;;;;;;;15.06;100.00;102138.50;10305018;28;20133;-78
2022/08/24 05:57:03;;;;;;;1.25;1.15;;;;;;;15.39;100.00;102158.38;10310467;28;20050;-79
2022/08/24 06:02:22;;;;;;;1.67;1.58;;;;;;;15.78;100.00;102168.03;10314854;28;20097;-79
2022/08/24 06:07:25;;;;;;;1.35;1.25;;;;;;;16.05;100.00;102172.16;10306607;28;20113;-79
2022/08/24 06:12:32;;;;;;;1.42;1.20;;;;;;;16.46;100.00;102180.03;10305372;28;20505;-79
2022/08/24 06:17:33;;;;;;;0.68;0.68;;;;;;;16.66;100.00;102184.78;10315256;28;20512;-79
2022/08/24 06:22:36;;;;;;;1.40;1.30;;;;;;;16.86;100.00;102195.59;10311621;28;20056;-79
2022/08/24 06:27:37;;;;;;;1.90;1.80;;;;;;;17.28;100.00;102204.28;10288581;28;20066;-78
2022/08/24 06:32:42;;;;;;;2.72;2.42;;;;;;;17.64;100.00;102208.38;10306746;28;20054;-78
2022/08/24 06:37:54;;;;;;;2.85;1.77;;;;;;;17.93;100.00;102208.00;10318968;28;20566;-79
2022/08/24 06:43:01;;;;;;;2.53;2.33;;;;;;;18.30;100.00;102215.56;10315320;28;20462;-78
2022/08/24 06:48:13;;;;;;;586.13;41.65;;;;;;;18.65;100.00;102205.59;10317140;28;20141;-79
2022/08/24 06:53:15;;;;;;;5.03;3.53;;;;;;;19.02;100.00;102163.41;10307664;28;20050;-79
2022/08/24 06:58:18;;;;;;;9.73;8.15;;;;;;;19.41;100.00;102158.56;10308878;28;20057;-79
2022/08/24 07:03:21;;;;;;;9.95;8.65;;;;;;;19.82;100.00;102109.22;10312030;28;20145;-79
2022/08/24 07:08:30;;;;;;;9.93;8.43;;;;;;;20.43;100.00;102080.81;10328314;28;20057;-79
2022/08/24 07:13:31;;;;;;;6.80;6.07;;;;;;;21.52;100.00;102011.06;10316019;28;20101;-78
2022/08/24 07:18:33;;;;;;;6.05;5.53;;;;;;;21.31;100.00;101951.69;10305648;28;20096;-78
2022/08/24 07:23:36;;;;;;;7.70;6.07;;;;;;;22.12;100.00;101894.50;10334721;28;20073;-78
2022/08/24 07:28:42;;;;;;;7.53;6.82;;;;;;;22.72;100.00;101880.97;10310736;28;20047;-79
2022/08/24 07:33:45;;;;;;;6.28;5.68;;;;;;;22.57;100.00;101849.59;10320470;28;20053;-79
2022/08/24 07:38:47;;;;;;;7.72;4.43;;;;;;;23.67;100.00;101861.53;10335054;28;20433;-77
2022/08/24 07:43:52;;;;;;;6.55;5.82;;;;;;;23.88;100.00;101839.28;10336804;28;20082;-77
2022/08/24 07:48:53;;;;;;;4.65;4.20;;;;;;;24.23;100.00;101837.91;10375994;28;20109;-77
2022/08/24 07:54:13;;;;;;;8.93;5.28;;;;;;;24.60;100.00;101839.91;10335156;28;20195;-77
2022/08/24 07:59:17;;;;;;;6.00;3.30;;;;;;;25.56;100.00;101832.78;10340677;28;20525;-78
2022/08/24 08:04:23;;;;;;;7.45;4.43;;;;;;;25.55;100.00;101811.69;10319597;28;20069;-77
2022/08/24 08:09:25;;;;;;;6.20;4.45;;;;;;;26.31;100.00;101805.47;10324521;28;20049;-77
2022/08/24 08:14:27;;;;;;;4.03;2.88;;;;;;;26.59;100.00;101800.34;10318271;28;20050;-77
2022/08/24 08:19:29;;;;;;;4.85;2.40;;;;;;;26.94;100.00;101804.72;10296689;28;20046;-76
2022/08/24 08:24:59;;;;;;;2.05;1.60;;;;;;;27.38;100.00;101786.66;10332538;28;20050;-77
2022/08/24 08:30:22;;;;;;;3.28;2.88;;;;;;;27.85;100.00;101802.84;10332192;28;20419;-77
2022/08/24 08:35:25;;;;;;;2.75;1.83;;;;;;;27.54;100.00;101793.22;10321093;28;20054;-76
2022/08/24 08:40:54;;;;;;;2.33;1.73;;;;;;;28.39;100.00;101784.28;10328278;28;20050;-77
2022/08/24 08:46:07;;;;;;;;;;;;;;;28.35;100.00;101777.34;10328087;28;20058;-77
2022/08/24 08:52:05;;;;;;;1.50;1.20;;;;;;;28.42;100.00;101791.25;10329988;28;20292;-77
2022/08/24 08:57:07;;;;;;;;;;;;;;;27.79;100.00;101781.88;10318300;28;20905;-77
2022/08/24 09:02:51;;;;;;;0.50;0.50;;;;;;;28.95;98.55;101787.59;10317166;28;20364;-77
2022/08/24 09:08:04;;;;;;;0.10;0.10;;;;;;;28.48;89.66;101788.38;10318864;28;20053;-75
2022/08/24 09:13:36;;;;;;;1.35;1.17;;;;;;;28.67;87.78;101793.91;10323949;28;20066;-77
2022/08/24 09:19:27;;;;;;;0.90;0.57;;;;;;;28.92;86.52;101785.94;10324915;28;20070;-78
2022/08/24 09:24:53;;;;;;;0.20;0.20;;;;;;;29.17;85.79;101781.47;10293830;28;20489;-77
2022/08/24 09:30:23;;;;;;;4.13;0.82;;;;;;;29.08;81.24;101791.50;10333947;28;20050;-77
2022/08/24 09:35:44;;;;;;;0.20;0.20;;;;;;;29.21;80.71;101788.41;10336695;28;20054;-77
2022/08/24 09:41:05;;;;;;;0.85;0.68;;;;;;;29.47;79.47;101791.84;10341434;28;20113;-77
2022/08/24 09:46:15;;;;;;;1.27;0.52;;;;;;;29.71;71.65;101793.50;10339829;28;20046;-77
2022/08/24 09:51:42;;;;;;;0.10;0.10;;;;;;;29.33;75.20;101795.91;10320205;28;20062;-77
2022/08/24 09:57:22;;;;;;;1999.90;999.90;;;;;;;29.98;68.46;101789.81;10325914;28;20049;-77
2022/08/24 10:02:58;;;;;;;1999.90;999.90;;;;;;;30.44;70.96;101785.16;10337769;28;20065;-77
2022/08/24 10:08:04;;;;;;;1999.90;999.90;;;;;;;30.66;73.76;101781.56;10320169;28;20425;-77
2022/08/24 10:13:14;;;;;;;1999.90;999.90;;;;;;;30.52;71.10;101774.22;10340458;28;20046;-77
2022/08/24 10:18:33;;;;;;;1999.90;999.90;;;;;;;30.56;77.11;101770.50;10337981;28;20054;-77
2022/08/24 10:24:12;;;;;;;1999.90;999.90;;;;;;;30.28;73.46;101766.34;10317108;28;20058;-76
2022/08/24 10:29:51;;;;;;;1999.90;999.90;;;;;;;31.22;70.98;101747.97;10281512;28;20065;-76
2022/08/24 10:35:00;;;;;;;1999.90;999.90;;;;;;;31.14;65.31;101748.31;10336826;28;20053;-77
2022/08/24 10:40:30;;;;;;;1999.90;999.90;;;;;;;31.24;61.81;101756.72;10328272;28;20106;-77
2022/08/24 10:46:00;;;;;;;1999.90;999.90;;;;;;;31.30;62.65;101747.59;10333344;28;20057;-77
2022/08/24 10:51:49;;;;;;;1999.90;999.90;;;;;;;30.86;66.90;101751.41;10321732;28;20054;-77
2022/08/24 10:57:59;;;;;;;0.63;0.35;;;;;;;30.65;65.34;101747.94;10325541;28;20505;-77
2022/08/24 11:03:12;;;;;;;20.08;2.35;;;;;;;31.11;68.47;101734.28;10327386;23;20058;-77
2022/08/24 11:08:26;;;;;;;0.20;0.10;;;;;;;30.91;67.22;101744.06;10295276;28;20051;-77
2022/08/24 11:13:28;;;;;;;0.52;0.20;;;;;;;31.25;69.31;101734.50;10330950;28;20054;-77
2022/08/24 11:18:58;;;;;;;2.25;0.77;;;;;;;31.25;59.27;101737.16;10300329;28;20135;-77
2022/08/24 11:24:26;;;;;;;0.17;0.10;;;;;;;31.22;57.81;101736.44;10310805;28;20066;-77
2022/08/24 11:29:48;;;;;;;0.10;0.00;;;;;;;31.69;52.67;101737.72;10311134;28;21167;-79
2022/08/24 11:34:50;;;;;;;0.30;0.28;;;;;;;31.11;53.69;101739.63;10323353;28;20263;-80
2022/08/24 11:39:51;;;;;;;0.00;0.00;;;;;;;31.42;57.00;101732.81;10314867;28;20596;-79
2022/08/24 11:45:06;;;;;;;0.00;0.00;;;;;;;31.08;52.70;101734.44;10314064;28;20074;-79
2022/08/24 11:50:24;;;;;;;0.32;0.15;;;;;;;31.81;50.40;101729.13;10309928;28;20050;-79
2022/08/24 11:55:44;;;;;;;0.00;0.00;;;;;;;31.43;51.98;101731.88;10322293;28;20050;-80
2022/08/24 12:01:03;;;;;;;0.10;0.08;;;;;;;32.13;54.91;101723.94;10331938;28;20054;-79
2022/08/24 12:06:17;;;;;;;0.65;0.38;;;;;;;30.04;58.69;101729.31;10333901;28;20046;-78
2022/08/24 12:11:40;;;;;;;0.10;0.10;;;;;;;29.74;61.19;101724.34;10303534;28;20046;-79
2022/08/24 12:16:56;;;;;;;0.20;0.10;;;;;;;29.38;65.52;101722.25;10299931;28;20050;-78
2022/08/24 12:22:02;;;;;;;0.00;0.00;;;;;;;30.04;64.73;101710.72;10337607;28;20054;-79
2022/08/24 12:27:10;;;;;;;1.08;0.55;;;;;;;31.00;61.25;101708.16;10329068;28;20458;-78
2022/08/24 12:32:20;;;;;;;0.32;0.10;;;;;;;30.47;59.13;101707.06;10331050;28;20109;-78
2022/08/24 12:37:34;;;;;;;5.28;0.60;;;;;;;30.15;59.64;101706.72;10347340;28;20460;-79
2022/08/24 12:42:49;;;;;;;0.20;0.20;;;;;;;30.95;57.67;101712.88;10358958;28;20046;-78
2022/08/24 12:48:12;;;;;;;0.00;0.00;;;;;;;31.63;58.32;101702.44;10363329;28;20100;-78
2022/08/24 12:53:53;;;;;;;0.40;0.10;;;;;;;31.64;52.50;101698.00;10330764;28;20059;-79
2022/08/24 12:59:19;;;;;;;0.05;0.05;;;;;;;30.45;56.05;101706.25;10312761;28;20054;-78
2022/08/24 13:04:26;;;;;;;0.20;0.10;;;;;;;30.77;52.58;101709.28;10316945;28;20457;-78
2022/08/24 13:09:35;;;;;;;0.08;0.08;;;;;;;30.62;55.91;101701.06;10335241;28;20406;-79
2022/08/24 13:14:36;;;;;;;0.00;0.00;;;;;;;31.09;58.11;101690.94;10328905;28;20104;-79
2022/08/24 13:19:44;;;;;;;0.10;0.10;;;;;;;31.42;48.69;101692.88;10338023;28;20058;-78
2022/08/24 13:25:00;;;;;;;0.55;0.40;;;;;;;31.26;59.90;101685.66;10349094;28;20414;-79
2022/08/24 13:30:17;;;;;;;0.00;0.00;;;;;;;31.41;51.32;101688.47;10333603;28;20038;-78
2022/08/24 13:35:29;;;;;;;0.10;0.10;;;;;;;30.36;54.42;101689.78;10342166;28;20113;-78
2022/08/24 13:40:41;;;;;;;0.10;0.10;;;;;;;30.38;52.32;101689.75;10319397;28;20082;-78
2022/08/24 13:45:55;;;;;;;0.20;0.10;;;;;;;30.79;50.84;101680.81;10341680;28;20097;-78
2022/08/24 13:51:19;;;;;;;0.00;0.00;;;;;;;31.19;51.87;101678.91;10332822;28;20406;-78
2022/08/24 13:56:24;;;;;;;1.75;0.28;;;;;;;31.15;51.49;101680.00;10336556;28;20074;-78
2022/08/24 14:01:43;;;;;;;0.10;0.10;;;;;;;31.19;52.41;101678.91;10337481;28;20050;-78
2022/08/24 14:07:22;;;;;;;0.00;0.00;;;;;;;30.53;51.49;101680.22;10335522;28;20070;-77
2022/08/24 14:12:30;;;;;;;0.00;0.00;;;;;;;30.11;64.11;101678.56;10327124;28;20054;-77
2022/08/24 14:17:50;;;;;;;0.05;0.00;;;;;;;30.54;57.85;101671.31;10329312;28;20050;-77
2022/08/24 14:23:16;;;;;;;0.00;0.00;;;;;;;29.98;62.38;101667.59;10329714;28;20050;-77
2022/08/24 14:28:36;;;;;;;0.00;0.00;;;;;;;29.88;61.21;101672.44;10329056;28;20050;-77
2022/08/24 14:34:05;;;;;;;0.00;0.00;;;;;;;30.19;62.75;101666.66;10329040;28;20047;-77
2022/08/24 14:39:23;;;;;;;;;;;;;;;30.45;66.54;101659.28;10308142;28;20397;-77
2022/08/24 14:44:46;;;;;;;0.10;0.10;;;;;;;30.26;58.79;101661.06;10333798;28;19928;-77
2022/08/24 14:50:03;;;;;;;2.53;0.30;;;;;;;30.15;58.67;101651.78;10317259;28;20692;-77
2022/08/24 14:55:24;;;;;;;0.08;0.08;;;;;;;30.32;60.43;101656.31;10301415;28;20126;-77
2022/08/24 15:00:48;;;;;;;0.25;0.13;;;;;;;30.48;59.30;101639.69;10312059;28;20105;-77
2022/08/24 15:06:06;;;;;;;0.10;0.10;;;;;;;30.68;57.23;101638.78;10312066;28;20455;-78
2022/08/24 15:11:28;;;;;;;0.43;0.20;;;;;;;30.42;53.87;101650.59;10332620;28;20077;-77
2022/08/24 15:16:50;;;;;;;0.03;0.00;;;;;;;30.52;55.28;101643.94;10331722;28;20053;-77
2022/08/24 15:22:01;;;;;;;0.00;0.00;;;;;;;30.95;58.08;101638.38;10315680;28;20042;-77
2022/08/24 15:27:43;;;;;;;0.00;0.00;;;;;;;30.97;71.16;101634.69;10327507;28;20054;-78
2022/08/24 15:32:52;;;;;;;0.10;0.10;;;;;;;31.13;49.94;101633.97;10325891;28;20053;-77
2022/08/24 15:37:54;;;;;;;0.25;0.20;;;;;;;31.07;50.10;101620.94;10324186;28;20521;-77
2022/08/24 15:43:02;;;;;;;0.10;0.10;;;;;;;31.16;49.69;101621.38;10325413;28;20050;-77
2022/08/24 15:48:04;;;;;;;0.20;0.20;;;;;;;31.30;50.57;101620.69;10330612;28;20061;-78
2022/08/24 15:53:23;;;;;;;0.00;0.00;;;;;;;30.98;52.75;101617.78;10335710;28;20510;-78
2022/08/24 15:58:35;;;;;;;0.17;0.08;;;;;;;30.86;50.97;101618.41;10318055;28;20054;-77
2022/08/24 16:03:48;;;;;;;0.13;0.13;;;;;;;30.61;47.49;101624.88;10327317;28;20042;-78
2022/08/24 16:09:02;;;;;;;0.03;0.03;;;;;;;30.81;47.53;101621.28;10321020;28;20382;-78
2022/08/24 16:14:10;;;;;;;0.10;0.10;;;;;;;30.84;50.59;101620.25;10331704;28;20097;-78
2022/08/24 16:19:23;;;;;;;0.08;0.08;;;;;;;30.43;53.11;101618.63;10333863;28;20054;-78
2022/08/24 16:24:37;;;;;;;0.13;0.10;;;;;;;30.37;52.16;101617.09;10335242;28;20065;-77
2022/08/24 16:29:40;;;;;;;0.63;0.17;;;;;;;30.43;50.83;101620.41;10332080;28;20442;-78
2022/08/24 16:34:46;;;;;;;0.43;0.20;;;;;;;30.27;59.20;101615.78;10336815;28;20061;-77
2022/08/24 16:39:48;;;;;;;0.15;0.15;;;;;;;29.90;56.05;101612.09;10332563;28;20097;-77
2022/08/24 16:44:50;;;;;;;0.25;0.10;;;;;;;30.18;59.52;101614.44;10334704;28;20161;-78
2022/08/24 16:49:53;;;;;;;0.10;0.10;;;;;;;30.19;59.86;101607.34;10315757;28;20093;-78
2022/08/24 16:54:55;;;;;;;0.10;0.08;;;;;;;30.09;56.54;101611.34;10330204;28;20097;-77
2022/08/24 16:59:59;;;;;;;1.25;0.30;;;;;;;29.98;57.57;101607.34;10301748;28;20125;-77
2022/08/24 17:05:01;;;;;;;0.20;0.00;;;;;;;29.91;64.82;101603.25;10318085;28;20051;-81
2022/08/24 17:10:05;;;;;;;0.00;0.00;;;;;;;29.88;60.83;101614.00;10332095;28;20063;-80
2022/08/24 17:22:07;;;;;;;0.05;0.05;;;;;;;29.66;65.70;101604.31;10347145;28;20402;-79
2022/08/24 17:27:13;;;;;;;0.13;0.10;;;;;;;29.59;64.46;101606.38;10385289;28;20077;-79
2022/08/24 17:32:15;;;;;;;1.13;0.52;;;;;;;29.29;70.25;101605.88;10370650;28;20078;-78
2022/08/24 17:37:17;;;;;;;0.05;0.05;;;;;;;29.29;66.16;101608.53;10366945;28;20106;-79
2022/08/24 17:42:18;;;;;;;0.30;0.15;;;;;;;29.03;76.15;101607.78;10364777;28;20059;-79
2022/08/24 17:47:45;;;;;;;0.10;0.10;;;;;;;28.89;73.90;101618.94;10365108;28;20042;-79
2022/08/24 17:52:46;;;;;;;0.00;0.00;;;;;;;28.71;71.68;101625.84;10364590;28;20093;-80
2022/08/24 17:57:48;;;;;;;0.00;0.00;;;;;;;28.50;73.99;101632.84;10364453;28;20098;-78
2022/08/24 18:02:49;;;;;;;0.20;0.10;;;;;;;28.27;73.03;101631.03;10382157;28;20127;-79
2022/08/24 18:07:53;;;;;;;1.88;0.98;;;;;;;28.06;76.21;101630.06;10380373;28;20047;-79
2022/08/24 18:12:59;;;;;;;0.03;0.03;;;;;;;27.68;80.03;101635.75;10362787;28;20045;-79
2022/08/24 18:18:04;;;;;;;0.20;0.00;;;;;;;27.44;84.65;101638.31;10363572;28;20050;-79
2022/08/24 18:23:05;;;;;;;0.20;0.20;;;;;;;27.25;85.89;101640.69;10379206;28;20074;-79
2022/08/24 18:28:14;;;;;;;0.10;0.10;;;;;;;26.99;89.23;101634.44;10362937;28;20085;-79
2022/08/24 18:33:16;;;;;;;0.20;0.10;;;;;;;26.83;91.58;101639.34;10384577;28;20138;-79
2022/08/24 18:38:17;;;;;;;0.10;0.10;;;;;;;26.53;96.07;101647.25;10383064;28;20034;-79
2022/08/24 18:43:22;;;;;;;0.05;0.05;;;;;;;26.53;94.62;101649.91;10384255;28;20054;-78
2022/08/24 18:48:24;;;;;;;0.47;0.43;;;;;;;26.44;96.87;101663.38;10384402;28;20053;-79
2022/08/24 18:53:26;;;;;;;0.00;0.00;;;;;;;26.11;100.00;101658.13;10383923;28;20057;-79
2022/08/24 18:58:28;;;;;;;540.88;34.45;;;;;;;25.85;100.00;101664.94;10350544;28;20107;-79
2022/08/24 19:03:31;;;;;;;0.22;0.20;;;;;;;25.58;100.00;101669.16;10366460;28;20070;-79
2022/08/24 19:08:32;;;;;;;0.28;0.22;;;;;;;25.41;100.00;101669.56;10366763;28;20058;-79
2022/08/24 19:13:36;;;;;;;0.30;0.17;;;;;;;25.17;100.00;101675.34;10383868;28;20065;-79
2022/08/24 19:18:38;;;;;;;0.28;0.20;;;;;;;25.37;100.00;101670.50;10383105;28;20086;-79
2022/08/24 19:23:40;;;;;;;0.43;0.28;;;;;;;25.13;100.00;101681.59;10381055;28;20134;-80
2022/08/24 19:28:41;;;;;;;0.10;0.10;;;;;;;25.11;100.00;101687.81;10380370;28;20054;-79
2022/08/24 19:33:45;;;;;;;0.10;0.10;;;;;;;25.23;100.00;101679.63;10377053;28;20081;-79
2022/08/24 19:38:50;;;;;;;21.38;15.00;;;;;;;25.04;100.00;101692.34;10359987;28;20054;-79
2022/08/24 19:49:28;;;;;;;0.10;0.10;;;;;;;24.80;100.00;101693.75;10375298;28;20038;-79
2022/08/24 19:54:37;;;;;;;0.43;0.20;;;;;;;24.49;100.00;101692.59;10375351;28;20106;-79
2022/08/24 20:06:36;;;;;;;0.20;0.20;;;;;;;23.99;100.00;101700.53;10375105;28;20058;-79
2022/08/24 20:11:38;;;;;;;12.07;11.27;;;;;;;23.99;100.00;101700.53;10376007;28;20054;-79
2022/08/24 20:16:41;;;;;;;1999.90;999.90;;;;;;;23.70;100.00;101704.50;10371756;28;20062;-79
2022/08/24 20:21:42;;;;;;;1999.90;999.90;;;;;;;23.66;100.00;101701.94;10373917;28;20119;-79
2022/08/24 20:26:45;;;;;;;69.50;4.28;;;;;;;23.38;100.00;101703.25;10357766;28;20476;-79
2022/08/24 20:31:48;;;;;;;0.50;0.30;;;;;;;23.49;100.00;101707.47;10373331;28;20110;-79
2022/08/24 20:36:52;;;;;;;0.20;0.20;;;;;;;23.13;100.00;101714.06;10380693;28;20050;-79
2022/08/24 20:41:54;;;;;;;0.30;0.20;;;;;;;23.17;100.00;101714.03;10375835;28;20057;-79
2022/08/24 20:46:55;;;;;;;1.75;0.52;;;;;;;23.04;100.00;101708.97;10365424;28;20058;-78
2022/08/24 20:51:59;;;;;;;0.40;0.40;;;;;;;23.01;100.00;101711.63;10371168;28;20077;-79
2022/08/24 20:57:01;;;;;;;0.40;0.40;;;;;;;22.87;100.00;101716.19;10370331;28;20437;-79
2022/08/24 21:02:03;;;;;;;0.68;0.47;;;;;;;22.69;100.00;101720.75;10366819;28;20046;-79
2022/08/24 21:07:09;;;;;;;0.47;0.32;;;;;;;22.60;100.00;101724.38;10367411;28;20468;-79
2022/08/24 21:12:10;;;;;;;0.08;0.00;;;;;;;22.50;100.00;101721.00;10350749;28;20430;-79
2022/08/24 21:17:12;;;;;;;0.08;0.05;;;;;;;22.41;100.00;101723.69;10347688;28;20086;-79
2022/08/24 21:22:16;;;;;;;0.40;0.25;;;;;;;22.55;100.00;101714.81;10347267;28;20054;-79
2022/08/24 21:27:18;;;;;;;0.52;0.28;;;;;;;22.41;100.00;101717.59;10363441;28;20046;-79
2022/08/24 21:37:40;;;;;;;0.20;0.20;;;;;;;22.20;100.00;101722.13;10352274;28;20054;-78
2022/08/24 21:42:41;;;;;;;0.75;0.47;;;;;;;22.26;100.00;101727.34;10353326;28;20046;-78
2022/08/24 21:47:43;;;;;;;0.20;0.10;;;;;;;22.17;100.00;101720.41;10349375;28;20538;-79
2022/08/24 21:52:45;;;;;;;0.13;0.13;;;;;;;22.04;100.00;101724.03;10367528;28;20069;-78
2022/08/24 21:57:52;;;;;;;0.10;0.10;;;;;;;22.05;100.00;101720.53;10338625;28;20122;-77
2022/08/24 22:02:55;;;;;;;0.70;0.22;;;;;;;21.91;100.00;101714.53;10358952;28;20104;-78
2022/08/24 22:07:57;;;;;;;0.22;0.20;;;;;;;21.89;100.00;101718.91;10374631;28;20054;-77
2022/08/24 22:13:02;;;;;;;0.38;0.32;;;;;;;21.90;100.00;101707.53;10374186;28;20069;-78
2022/08/24 22:18:05;;;;;;;0.95;0.63;;;;;;;22.21;100.00;101691.50;10374532;28;20112;-78
2022/08/24 22:23:07;;;;;;;0.90;0.55;;;;;;;21.74;100.00;101699.78;10368510;28;20058;-78
2022/08/24 22:28:09;;;;;;;0.70;0.40;;;;;;;21.66;100.00;101701.59;10343247;28;20101;-79
2022/08/24 22:33:14;;;;;;;1.17;0.60;;;;;;;21.37;100.00;101713.13;10358930;28;20054;-79
2022/08/24 22:38:17;;;;;;;0.38;0.35;;;;;;;21.15;100.00;101715.88;10338053;28;20520;-79
2022/08/24 22:43:19;;;;;;;0.10;0.10;;;;;;;20.79;100.00;101722.16;10335906;28;20050;-79
2022/08/24 22:48:25;;;;;;;0.82;0.20;;;;;;;20.61;100.00;101724.78;10353251;28;20054;-79
2022/08/24 22:53:27;;;;;;;0.57;0.55;;;;;;;20.72;100.00;101718.66;10332119;28;20114;-79
2022/08/24 22:58:29;;;;;;;0.30;0.20;;;;;;;20.33;100.00;101734.44;10347858;28;20092;-79
2022/08/24 23:03:30;;;;;;;0.22;0.20;;;;;;;20.06;100.00;101746.69;10347477;28;20094;-79
2022/08/24 23:08:32;;;;;;;0.75;0.50;;;;;;;19.94;100.00;101738.84;10324821;28;20498;-79
2022/08/24 23:13:36;;;;;;;0.45;0.43;;;;;;;19.68;100.00;101749.25;10340893;28;20050;-79
2022/08/24 23:23:59;;;;;;;0.32;0.28;;;;;;;19.31;100.00;101756.13;10340182;28;20451;-78
2022/08/24 23:29:02;;;;;;;0.38;0.30;;;;;;;19.14;100.00;101757.81;10339582;28;20058;-78
2022/08/24 23:34:06;;;;;;;0.52;0.30;;;;;;;19.08;100.00;101747.34;10347984;28;20106;-79
2022/08/24 23:39:09;;;;;;;1.30;0.63;;;;;;;18.94;100.00;101761.22;10368534;28;20046;-78
2022/08/24 23:44:17;;;;;;;0.28;0.20;;;;;;;18.98;100.00;101757.75;10368177;28;20045;-78
2022/08/24 23:49:21;;;;;;;0.40;0.40;;;;;;;18.85;100.00;101751.53;10364629;28;20105;-78
2022/08/24 23:54:24;;;;;;;0.70;0.50;;;;;;;18.78;100.00;101748.91;10377481;28;20026;-77